Time;durP1;ratioP1;P1;durP2;ratioP2;P2;SDS_P1;SDS_P2;PMS_P1;PMS_P2;Temp;Humidity;BMP_temperature;BMP_pressure;BME280_temperature;BME280_humidity;BME280_pressure;Samples;Min_cycle;Max_cycle;Signal;HPM_P1;HPM_P2
2021/07/19 00:01:46;;;;;;;9.60;5.88;;;21.60;57.30;;;;;;20958524;28;20028;-19
2021/07/19 00:11:46;;;;;;;9.63;6.37;;;21.60;57.60;;;;;;20983064;28;20463;-19
2021/07/19 00:21:47;;;;;;;13.63;6.83;;;21.60;58.00;;;;;;20990311;28;20029;-19
2021/07/19 00:31:48;;;;;;;11.18;6.82;;;21.60;57.90;;;;;;20988538;28;20081;-19
2021/07/19 00:41:48;;;;;;;9.10;6.25;;;21.50;57.80;;;;;;20995421;28;20515;-19
2021/07/19 00:51:49;;;;;;;10.18;6.32;;;21.50;57.90;;;;;;20995086;28;20032;-19
2021/07/19 01:01:54;;;;;;;8.85;5.72;;;21.60;58.50;;;;;;20954554;28;20029;-18
2021/07/19 01:12:00;;;;;;;8.48;5.78;;;21.60;58.00;;;;;;20957201;28;20446;-18
2021/07/19 01:22:18;;;;;;;11.90;6.53;;;21.50;58.20;;;;;;20952965;28;20036;-19
2021/07/19 01:32:20;;;;;;;9.27;5.65;;;21.50;58.40;;;;;;20949856;28;20673;-19
2021/07/19 01:42:21;;;;;;;10.00;5.90;;;21.50;58.60;;;;;;20945012;28;20519;-18
2021/07/19 01:52:23;;;;;;;12.02;6.03;;;21.50;58.60;;;;;;20936331;28;20048;-19
2021/07/19 02:02:25;;;;;;;9.75;6.03;;;21.50;58.80;;;;;;20928721;28;20716;-19
2021/07/19 02:12:25;;;;;;;11.30;5.20;;;21.60;58.90;;;;;;20961164;28;20438;-19
2021/07/19 02:22:26;;;;;;;14.73;5.32;;;21.50;58.50;;;;;;20952039;28;20079;-18
2021/07/19 02:32:27;;;;;;;12.93;5.47;;;21.50;58.40;;;;;;20949564;28;20123;-19
2021/07/19 02:42:27;;;;;;;11.07;5.68;;;21.50;58.30;;;;;;20952224;28;20134;-19
2021/07/19 02:52:28;;;;;;;11.10;5.10;;;21.50;58.70;;;;;;21019970;22;20068;-19
2021/07/19 03:02:29;;;;;;;13.10;5.45;;;21.50;58.70;;;;;;20939399;28;20509;-19
2021/07/19 03:12:35;;;;;;;8.65;5.53;;;21.50;58.70;;;;;;20962529;28;20025;-19
2021/07/19 03:22:38;;;;;;;13.00;5.95;;;21.50;58.80;;;;;;20984313;28;20021;-19
2021/07/19 03:32:39;;;;;;;8.02;4.63;;;21.40;58.80;;;;;;20968638;28;20103;-19
2021/07/19 03:42:41;;;;;;;11.05;4.55;;;21.40;58.40;;;;;;20997054;28;20104;-19
2021/07/19 03:52:46;;;;;;;10.48;4.78;;;21.40;58.40;;;;;;20998167;28;20029;-20
2021/07/19 04:02:53;;;;;;;11.00;4.53;;;21.30;57.80;;;;;;20984138;28;20029;-20
2021/07/19 04:12:54;;;;;;;12.88;4.70;;;21.30;57.70;;;;;;20997098;28;20040;-20
2021/07/19 04:22:55;;;;;;;9.20;4.55;;;21.40;58.00;;;;;;20996104;28;20055;-20
2021/07/19 04:32:56;;;;;;;10.10;3.88;;;21.40;58.10;;;;;;20994940;28;20036;-20
2021/07/19 04:42:56;;;;;;;8.88;4.70;;;21.40;58.60;;;;;;20986235;28;20059;-19
2021/07/19 04:52:57;;;;;;;6.53;4.33;;;21.40;58.40;;;;;;20929182;28;20044;-19
2021/07/19 05:03:01;;;;;;;16.10;5.30;;;21.40;58.70;;;;;;20944052;28;20055;-19
2021/07/19 05:13:02;;;;;;;7.30;3.92;;;21.40;58.80;;;;;;20958668;28;20029;-20
2021/07/19 05:23:03;;;;;;;9.13;5.20;;;21.40;58.70;;;;;;20957687;28;20034;-20
2021/07/19 05:33:04;;;;;;;6.90;4.60;;;21.40;58.30;;;;;;20955224;28;20668;-19
2021/07/19 05:43:05;;;;;;;14.07;5.95;;;21.40;58.50;;;;;;20947711;28;20028;-19
2021/07/19 05:53:11;;;;;;;23.95;5.22;;;21.40;58.80;;;;;;20930705;28;20487;-19
2021/07/19 06:03:12;;;;;;;10.85;3.72;;;21.40;58.60;;;;;;20961475;28;20028;-20
2021/07/19 06:13:12;;;;;;;18.48;6.22;;;21.40;58.10;;;;;;20953203;28;20033;-20
2021/07/19 06:23:13;;;;;;;10.50;4.35;;;21.40;58.10;;;;;;20942674;28;20056;-20
2021/07/19 06:33:13;;;;;;;9.00;3.37;;;21.40;56.60;;;;;;20924250;28;20398;-20
2021/07/19 06:43:14;;;;;;;14.52;4.22;;;21.30;56.30;;;;;;20922511;28;21013;-20
2021/07/19 06:53:15;;;;;;;8.57;3.23;;;21.40;56.10;;;;;;20951438;28;20025;-20
2021/07/19 07:03:15;;;;;;;16.92;3.65;;;21.30;56.00;;;;;;20954769;28;20025;-20
2021/07/19 07:13:16;;;;;;;19.52;3.90;;;21.30;55.90;;;;;;20965159;28;20372;-19
2021/07/19 07:23:17;;;;;;;26.53;4.70;;;21.50;56.80;;;;;;20980555;28;20039;-19
2021/07/19 07:33:17;;;;;;;36.85;7.07;;;21.60;57.00;;;;;;20954975;28;20477;-20
2021/07/19 07:43:18;;;;;;;46.40;7.68;;;21.60;57.20;;;;;;20940824;28;20036;-19
2021/07/19 07:53:19;;;;;;;28.30;6.03;;;21.60;57.30;;;;;;20967233;28;20063;-19
2021/07/19 08:03:20;;;;;;;22.33;3.92;;;21.70;57.00;;;;;;20941214;28;20033;-19
2021/07/19 08:13:20;;;;;;;11.70;3.92;;;21.70;56.80;;;;;;20947948;28;20056;-20
2021/07/19 08:23:21;;;;;;;11.57;3.28;;;21.70;56.50;;;;;;20962629;28;20039;-20
2021/07/19 08:33:22;;;;;;;11.47;4.20;;;21.70;56.20;;;;;;20941905;28;20020;-20
2021/07/19 08:43:22;;;;;;;7.83;3.00;;;21.80;55.70;;;;;;20961054;28;20463;-19
2021/07/19 08:53:23;;;;;;;12.50;3.22;;;21.80;55.30;;;;;;20949122;28;20474;-19
2021/07/19 09:03:23;;;;;;;17.02;3.42;;;21.80;55.00;;;;;;20933316;28;20029;-19
2021/07/19 09:13:24;;;;;;;13.18;3.90;;;21.80;55.60;;;;;;20942961;28;20052;-19
2021/07/19 09:23:28;;;;;;;18.05;4.35;;;21.80;55.70;;;;;;20959142;28;20060;-19
2021/07/19 09:33:28;;;;;;;18.10;3.45;;;21.90;56.20;;;;;;20923661;28;20087;-19
2021/07/19 09:43:33;;;;;;;21.75;5.10;;;21.90;56.40;;;;;;20946255;28;20364;-20
2021/07/19 09:53:36;;;;;;;11.90;3.92;;;21.90;56.70;;;;;;20936201;28;20041;-20
2021/07/19 10:03:37;;;;;;;8.43;3.67;;;21.90;56.50;;;;;;20952278;28;20515;-20
2021/07/19 10:23:43;;;;;;;13.90;4.45;;;22.00;56.10;;;;;;20666594;28;20055;-19
2021/07/19 10:33:45;;;;;;;7.20;4.20;;;21.90;56.10;;;;;;20738943;28;20026;-20
2021/07/19 10:43:47;;;;;;;6.70;3.38;;;21.90;56.70;;;;;;20738212;28;20076;-19
2021/07/19 10:53:48;;;;;;;8.93;3.22;;;22.00;56.30;;;;;;20738957;28;20025;-19
2021/07/19 11:03:49;;;;;;;8.70;4.00;;;22.00;56.70;;;;;;20752659;28;20610;-20
2021/07/19 11:14:07;;;;;;;19.65;3.75;;;21.90;56.70;;;;;;20739034;28;20197;-18
2021/07/19 11:24:12;;;;;;;11.30;4.03;;;22.00;57.00;;;;;;20739815;28;20502;-19
2021/07/19 11:34:23;;;;;;;10.85;3.85;;;22.30;56.10;;;;;;20723843;28;20034;-20
2021/07/19 11:44:24;;;;;;;6.10;3.50;;;22.10;56.30;;;;;;20721435;28;20113;-20
2021/07/19 11:54:24;;;;;;;7.70;4.22;;;22.00;56.40;;;;;;20737037;28;20546;-19
2021/07/19 12:04:45;;;;;;;8.70;4.35;;;22.00;56.50;;;;;;20750371;28;20313;-19
2021/07/19 12:14:55;;;;;;;9.95;3.58;;;22.00;57.50;;;;;;20748786;28;20574;-20
2021/07/19 12:24:56;;;;;;;6.88;4.30;;;22.00;57.80;;;;;;20746949;28;20022;-20
2021/07/19 12:35:06;;;;;;;6.40;4.45;;;22.00;58.00;;;;;;20735797;28;20036;-20
2021/07/19 12:45:07;;;;;;;7.15;4.88;;;22.00;58.40;;;;;;20764057;28;20030;-20
2021/07/19 12:55:10;;;;;;;15.65;5.72;;;22.00;58.20;;;;;;20747606;28;20029;-20
2021/07/19 13:05:13;;;;;;;14.30;5.28;;;21.90;59.20;;;;;;20749508;28;20659;-20
2021/07/19 13:15:20;;;;;;;8.90;4.53;;;22.00;59.10;;;;;;20781887;28;20030;-20
2021/07/19 13:25:26;;;;;;;17.67;4.82;;;22.00;59.40;;;;;;20749994;28;20052;-20
2021/07/19 13:35:41;;;;;;;18.05;6.43;;;22.00;60.70;;;;;;20747732;28;20025;-20
2021/07/19 13:45:42;;;;;;;20.85;6.30;;;22.10;60.60;;;;;;20747732;28;20079;-19
2021/07/19 13:55:50;;;;;;;22.15;6.80;;;22.20;60.50;;;;;;20744065;28;20022;-20
2021/07/19 14:05:51;;;;;;;23.23;7.15;;;22.20;59.80;;;;;;20744922;28;20029;-20
2021/07/19 14:15:52;;;;;;;15.73;6.40;;;22.10;59.70;;;;;;20733115;28;20036;-19
2021/07/19 14:25:52;;;;;;;18.90;6.07;;;22.20;59.40;;;;;;20743818;28;20026;-19
2021/07/19 14:35:53;;;;;;;12.55;5.85;;;22.10;59.60;;;;;;20742798;28;20080;-19
2021/07/19 14:45:53;;;;;;;13.73;6.38;;;22.20;59.10;;;;;;20746491;28;20575;-19
2021/07/19 14:55:54;;;;;;;16.20;7.25;;;22.10;59.40;;;;;;20746634;28;20034;-20
2021/07/19 15:05:55;;;;;;;19.90;7.20;;;22.10;59.70;;;;;;20740240;28;20034;-19
2021/07/19 15:15:55;;;;;;;20.58;6.75;;;22.10;59.30;;;;;;20738667;28;20527;-19
2021/07/19 15:25:56;;;;;;;24.75;7.68;;;22.20;58.90;;;;;;20738491;28;20562;-19
2021/07/19 15:35:57;;;;;;;21.52;7.93;;;22.20;58.70;;;;;;20735530;28;20030;-19
2021/07/19 15:45:57;;;;;;;29.73;7.45;;;22.20;59.20;;;;;;20744946;28;20040;-19
2021/07/19 15:55:58;;;;;;;20.58;7.82;;;22.20;59.20;;;;;;20753048;28;20037;-19
2021/07/19 16:05:58;;;;;;;19.60;7.70;;;22.10;59.30;;;;;;20753625;28;20042;-19
2021/07/19 16:15:59;;;;;;;20.98;6.50;;;22.20;59.40;;;;;;20774787;23;20056;-19
2021/07/19 16:25:59;;;;;;;16.00;6.95;;;22.20;59.50;;;;;;20869063;28;20059;-20
2021/07/19 16:36:00;;;;;;;16.77;6.90;;;22.10;59.30;;;;;;20842646;28;20068;-20
2021/07/19 16:56:02;;;;;;;22.48;6.72;;;22.10;58.40;;;;;;20840824;28;20048;-20
2021/07/19 17:06:04;;;;;;;28.65;7.10;;;22.20;58.60;;;;;;20827814;28;20034;-20
2021/07/19 17:16:05;;;;;;;16.42;6.20;;;22.20;58.60;;;;;;20825992;28;20727;-20
2021/07/19 17:26:06;;;;;;;15.80;5.70;;;22.20;58.20;;;;;;20812397;28;20029;-20
2021/07/19 17:36:07;;;;;;;24.73;6.47;;;22.20;57.70;;;;;;20846712;28;20053;-20
2021/07/19 17:46:07;;;;;;;13.82;6.25;;;22.20;57.70;;;;;;20857158;28;20036;-20
2021/07/19 17:56:08;;;;;;;19.10;6.33;;;22.20;58.00;;;;;;20856655;28;20062;-20
2021/07/19 18:06:09;;;;;;;17.08;5.38;;;22.40;57.90;;;;;;20858693;28;20450;-21
2021/07/19 18:16:09;;;;;;;16.67;5.43;;;22.30;57.60;;;;;;20854392;28;20434;-20
2021/07/19 18:36:11;;;;;;;18.17;7.77;;;22.20;57.80;;;;;;20810498;28;20037;-19
2021/07/19 18:46:12;;;;;;;12.27;5.30;;;22.20;58.40;;;;;;20856025;28;20467;-20
2021/07/19 18:56:13;;;;;;;15.57;5.68;;;22.00;57.60;;;;;;20840732;28;20077;-21
2021/07/19 19:06:13;;;;;;;22.27;6.10;;;21.90;56.70;;;;;;20764284;28;20064;-20
2021/07/19 19:16:14;;;;;;;21.38;5.80;;;21.90;57.20;;;;;;20840031;28;20034;-21
2021/07/19 19:26:15;;;;;;;14.23;7.28;;;21.80;57.00;;;;;;20785225;28;20539;-20
2021/07/19 19:36:17;;;;;;;8.02;4.75;;;21.90;57.40;;;;;;20780130;28;20586;-20
2021/07/19 19:46:18;;;;;;;13.13;6.68;;;22.00;57.60;;;;;;20775548;28;20038;-20
2021/07/19 19:56:18;;;;;;;9.55;6.07;;;21.90;57.20;;;;;;20765355;28;20079;-20
2021/07/19 20:06:19;;;;;;;8.68;5.30;;;21.90;58.00;;;;;;20765343;28;20108;-20
2021/07/19 20:16:20;;;;;;;7.95;5.80;;;22.00;58.80;;;;;;20773264;28;1042713;-20
2021/07/19 20:26:20;;;;;;;9.80;4.78;;;22.00;59.20;;;;;;20760827;28;20029;-20
2021/07/19 20:36:21;;;;;;;14.85;5.65;;;22.00;59.40;;;;;;20827515;28;20043;-20
2021/07/19 20:46:21;;;;;;;9.52;5.43;;;22.00;59.50;;;;;;20829709;28;20034;-21
2021/07/19 20:56:22;;;;;;;12.80;4.72;;;22.00;59.90;;;;;;20822427;28;20395;-20
2021/07/19 21:06:23;;;;;;;13.13;5.82;;;22.00;60.20;;;;;;20829017;28;20121;-20
2021/07/19 21:16:24;;;;;;;12.13;5.30;;;22.00;59.50;;;;;;20825884;28;20396;-20
2021/07/19 21:26:25;;;;;;;9.23;5.22;;;22.00;58.80;;;;;;20831595;28;20396;-20
2021/07/19 21:36:29;;;;;;;9.10;5.45;;;22.00;58.70;;;;;;20831708;28;20101;-20
2021/07/19 21:46:29;;;;;;;7.30;4.82;;;22.00;58.70;;;;;;20825764;28;20036;-20
2021/07/19 21:56:30;;;;;;;11.95;5.85;;;21.90;58.60;;;;;;20828849;28;20029;-20
2021/07/19 22:06:31;;;;;;;8.57;6.00;;;21.90;58.60;;;;;;20842752;28;20026;-20
2021/07/19 22:16:31;;;;;;;8.45;5.28;;;21.90;58.40;;;;;;20795426;28;20219;-20
2021/07/19 22:26:32;;;;;;;7.28;4.18;;;21.80;58.60;;;;;;20779071;28;20061;-21
2021/07/19 22:36:35;;;;;;;8.55;4.90;;;21.80;58.50;;;;;;20942237;23;20045;-18
2021/07/19 22:46:40;;;;;;;8.73;5.25;;;21.70;58.50;;;;;;20964577;28;20406;-19
2021/07/19 22:56:40;;;;;;;8.30;5.45;;;21.60;58.60;;;;;;20959713;28;20116;-19
2021/07/19 23:06:41;;;;;;;8.15;5.20;;;21.70;58.80;;;;;;20971047;28;20498;-19
2021/07/19 23:16:42;;;;;;;8.52;5.38;;;21.60;58.80;;;;;;20985544;28;20127;-19
2021/07/19 23:26:42;;;;;;;6.93;4.68;;;21.70;58.90;;;;;;20984525;28;20024;-19
2021/07/19 23:36:43;;;;;;;7.45;4.28;;;21.70;58.60;;;;;;20985228;28;20040;-19
2021/07/19 23:46:43;;;;;;;5.43;4.57;;;21.60;58.10;;;;;;20972884;28;20115;-19
2021/07/19 23:56:44;;;;;;;9.18;4.90;;;21.60;57.90;;;;;;20991760;28;20537;-20
